Аэропорт: Габала. Габала

ICAO: UBBQ

METAR:
2020-10-24 06:00:00
UBBQ 240600Z 00000KT 9999 NSC 15/14 Q1023 R34/CLRD// NOSIG RMK MT OP
METAR:
Информация по данной станции не доступна